Time;durP1;ratioP1;P1;durP2;ratioP2;P2;SDS_P1;SDS_P2;PMS_P1;PMS_P2;Temp;Humidity;BMP_temperature;BMP_pressure;BME280_temperature;BME280_humidity;BME280_pressure;Samples;Min_cycle;Max_cycle;Signal;HPM_P1;HPM_P2
2023/11/27 00:00:26;;;;;;;1.30;0.70;;;3.70;99.90;;;;;;5077387;28;20439;-56
2023/11/27 00:02:53;;;;;;;1.80;0.80;;;3.70;99.90;;;;;;5077472;28;20485;-56
2023/11/27 00:05:20;;;;;;;1.80;0.70;;;3.60;99.90;;;;;;5077065;28;20419;-56
2023/11/27 00:07:48;;;;;;;1.25;0.70;;;3.60;99.90;;;;;;5076961;28;20734;-57
2023/11/27 00:10:15;;;;;;;2.00;0.73;;;3.60;99.90;;;;;;5077157;28;20851;-57
2023/11/27 00:12:42;;;;;;;1.17;0.60;;;3.60;99.90;;;;;;5076996;28;20522;-57
2023/11/27 00:15:11;;;;;;;1.40;0.68;;;3.60;99.90;;;;;;5076318;28;20850;-56
2023/11/27 00:17:38;;;;;;;1.85;0.68;;;3.60;99.90;;;;;;5076206;28;20454;-57
2023/11/27 00:20:09;;;;;;;1.73;0.60;;;3.50;99.90;;;;;;5077058;28;20519;-57
2023/11/27 00:22:36;;;;;;;2.40;0.60;;;3.50;99.90;;;;;;5076734;28;20455;-57
2023/11/27 00:25:03;;;;;;;1.40;0.60;;;3.50;99.90;;;;;;5077082;28;20922;-57
2023/11/27 00:27:31;;;;;;;1.00;0.70;;;3.50;99.90;;;;;;5077358;28;20510;-56
2023/11/27 00:29:59;;;;;;;1.00;0.70;;;3.50;99.90;;;;;;5076217;28;20419;-56
2023/11/27 00:32:28;;;;;;;1.30;0.60;;;3.50;99.90;;;;;;5075918;28;20774;-57
2023/11/27 00:34:55;;;;;;;1.10;0.70;;;3.50;99.90;;;;;;5075905;28;20428;-52
2023/11/27 00:37:22;;;;;;;1.00;0.60;;;3.50;99.90;;;;;;5076229;28;20498;-56
2023/11/27 00:39:50;;;;;;;0.90;0.65;;;3.50;99.90;;;;;;5075593;28;20470;-57
2023/11/27 00:42:17;;;;;;;1.00;0.70;;;3.50;99.90;;;;;;5076571;28;20484;-56
2023/11/27 00:44:45;;;;;;;1.38;0.70;;;3.40;99.90;;;;;;5076306;28;20459;-55
2023/11/27 00:47:12;;;;;;;0.90;0.60;;;3.40;99.90;;;;;;5076046;28;20481;-56
2023/11/27 00:49:41;;;;;;;1.10;0.70;;;3.40;99.90;;;;;;5076614;28;20887;-52
2023/11/27 00:52:08;;;;;;;2.25;0.70;;;3.40;99.90;;;;;;5076266;28;20430;-56
2023/11/27 00:54:36;;;;;;;1.10;0.70;;;3.40;99.90;;;;;;5076564;28;20624;-55
2023/11/27 00:57:03;;;;;;;1.88;0.70;;;3.40;99.90;;;;;;5076153;28;20481;-55
2023/11/27 00:59:30;;;;;;;2.17;0.60;;;3.50;99.90;;;;;;5076049;28;20791;-56
2023/11/27 01:01:58;;;;;;;1.70;0.60;;;3.40;99.90;;;;;;5075344;28;20451;-57
2023/11/27 01:04:25;;;;;;;1.50;0.60;;;3.40;99.90;;;;;;5076456;28;20498;-53
2023/11/27 01:06:53;;;;;;;1.15;0.70;;;3.30;99.90;;;;;;5075337;28;20515;-54
2023/11/27 01:09:21;;;;;;;1.10;0.70;;;3.30;99.90;;;;;;5075138;28;20443;-54
2023/11/27 01:11:48;;;;;;;3.37;0.70;;;3.30;99.90;;;;;;5075548;28;20427;-55
2023/11/27 01:14:16;;;;;;;1.23;0.60;;;3.30;99.90;;;;;;5076197;28;20462;-56
2023/11/27 01:16:43;;;;;;;1.20;0.60;;;3.20;99.90;;;;;;5076004;28;20419;-53
2023/11/27 01:19:11;;;;;;;1.80;0.52;;;3.20;99.90;;;;;;5076005;28;20530;-53
2023/11/27 01:21:38;;;;;;;1.70;1.20;;;3.20;99.90;;;;;;5075651;28;20523;-57
2023/11/27 01:24:08;;;;;;;1.40;0.60;;;3.20;99.90;;;;;;5075341;28;20614;-55
2023/11/27 01:26:35;;;;;;;0.95;0.60;;;3.20;99.90;;;;;;5075449;28;20519;-54
2023/11/27 01:29:02;;;;;;;1.00;0.50;;;3.10;99.90;;;;;;5076333;28;20458;-55
2023/11/27 01:31:29;;;;;;;1.08;0.55;;;3.10;99.90;;;;;;5076165;28;20857;-54
2023/11/27 01:33:57;;;;;;;1.17;0.50;;;3.10;99.90;;;;;;5075569;28;20423;-56
2023/11/27 01:36:24;;;;;;;0.75;0.52;;;3.10;99.90;;;;;;5075422;28;20573;-52
2023/11/27 01:38:51;;;;;;;1.40;0.60;;;3.10;99.90;;;;;;5076139;28;20550;-56
2023/11/27 01:41:20;;;;;;;0.90;0.50;;;3.10;99.90;;;;;;5075179;28;20428;-55
2023/11/27 01:43:47;;;;;;;1.23;0.60;;;3.20;99.90;;;;;;5075556;28;20514;-54
2023/11/27 01:46:23;;;;;;;1.60;0.50;;;3.10;99.90;;;;;;5075604;28;20502;-56
2023/11/27 01:48:51;;;;;;;1.40;0.60;;;3.10;99.90;;;;;;5075275;28;20424;-56
2023/11/27 01:51:18;;;;;;;1.00;0.60;;;3.10;99.90;;;;;;5075173;28;20454;-57
2023/11/27 01:53:48;;;;;;;0.90;0.60;;;3.10;99.90;;;;;;5075029;28;20455;-56
2023/11/27 01:56:16;;;;;;;1.20;0.60;;;3.20;99.90;;;;;;5075327;28;20435;-56
2023/11/27 01:58:45;;;;;;;2.30;0.60;;;3.10;99.90;;;;;;5074692;28;20415;-56
2023/11/27 02:01:12;;;;;;;1.40;0.60;;;3.20;99.90;;;;;;5075618;28;20432;-56
2023/11/27 02:03:39;;;;;;;0.90;0.60;;;3.10;99.90;;;;;;5075058;28;20518;-57
2023/11/27 02:06:07;;;;;;;0.80;0.60;;;3.10;99.90;;;;;;5075460;28;20532;-57
2023/11/27 02:08:35;;;;;;;1.10;0.50;;;3.20;99.90;;;;;;5075143;28;20514;-56
2023/11/27 02:11:02;;;;;;;1.10;0.60;;;3.20;99.90;;;;;;5074653;28;20419;-58
2023/11/27 02:13:29;;;;;;;1.00;0.60;;;3.20;99.90;;;;;;5075292;28;20861;-55
2023/11/27 02:15:58;;;;;;;0.87;0.50;;;3.20;99.90;;;;;;5075367;28;20459;-57
2023/11/27 02:18:25;;;;;;;1.80;0.60;;;3.20;99.90;;;;;;5074913;28;20510;-55
2023/11/27 02:20:53;;;;;;;1.00;0.60;;;3.20;99.90;;;;;;5074151;28;20467;-56
2023/11/27 02:23:21;;;;;;;2.40;0.60;;;3.20;99.90;;;;;;5074803;28;20427;-56
2023/11/27 02:25:49;;;;;;;0.90;0.60;;;3.20;99.90;;;;;;5074026;28;20802;-55
2023/11/27 02:28:16;;;;;;;1.30;0.60;;;3.20;99.90;;;;;;5075174;28;20519;-54
2023/11/27 02:30:44;;;;;;;0.80;0.60;;;3.20;99.90;;;;;;5074718;28;20423;-56
2023/11/27 02:33:11;;;;;;;1.40;0.70;;;3.20;99.90;;;;;;5073970;28;20519;-57
2023/11/27 02:35:38;;;;;;;1.85;0.60;;;3.10;99.90;;;;;;5073722;28;20518;-55
2023/11/27 02:38:06;;;;;;;0.90;0.60;;;3.10;99.90;;;;;;5073865;28;20455;-52
2023/11/27 02:40:35;;;;;;;2.03;0.57;;;3.00;99.90;;;;;;5075104;28;20493;-58
2023/11/27 02:43:02;;;;;;;0.90;0.50;;;3.00;99.90;;;;;;5074314;28;20445;-52
2023/11/27 02:45:29;;;;;;;1.70;0.52;;;3.00;99.90;;;;;;5074195;28;20479;-57
2023/11/27 02:47:56;;;;;;;1.00;0.50;;;3.10;99.90;;;;;;5073317;28;20423;-55
2023/11/27 02:50:24;;;;;;;1.60;0.50;;;3.10;99.90;;;;;;5073477;28;20888;-54
2023/11/27 02:52:51;;;;;;;0.90;0.50;;;3.10;99.90;;;;;;5074832;28;20497;-55
2023/11/27 02:55:19;;;;;;;0.95;0.50;;;3.10;99.90;;;;;;5074628;28;20428;-54
2023/11/27 02:57:48;;;;;;;1.10;0.50;;;3.10;99.90;;;;;;5074250;28;20431;-57
2023/11/27 03:00:15;;;;;;;1.40;0.60;;;3.20;99.90;;;;;;5073617;28;20427;-60
2023/11/27 03:02:45;;;;;;;0.93;0.50;;;3.20;99.90;;;;;;5074092;28;20427;-55
2023/11/27 03:05:13;;;;;;;1.45;0.50;;;3.20;99.90;;;;;;5074225;28;20503;-57
2023/11/27 03:07:40;;;;;;;1.30;0.50;;;3.20;99.90;;;;;;5073260;28;20412;-55
2023/11/27 03:10:08;;;;;;;0.80;0.50;;;3.20;99.90;;;;;;5074406;28;20938;-55
2023/11/27 03:12:36;;;;;;;0.80;0.50;;;3.20;99.90;;;;;;5074000;28;20692;-60
2023/11/27 03:15:07;;;;;;;2.40;0.50;;;3.20;99.90;;;;;;5073896;28;20481;-57
2023/11/27 03:17:35;;;;;;;0.70;0.40;;;3.30;99.90;;;;;;5073385;28;20435;-56
2023/11/27 03:20:04;;;;;;;0.90;0.50;;;3.20;99.90;;;;;;5074701;28;20542;-55
2023/11/27 03:22:31;;;;;;;0.90;0.40;;;3.30;99.90;;;;;;5073314;28;20427;-55
2023/11/27 03:24:58;;;;;;;1.10;0.50;;;3.20;99.90;;;;;;5072418;28;20934;-55
2023/11/27 03:27:26;;;;;;;1.80;0.50;;;3.20;99.90;;;;;;5078098;28;20427;-53
2023/11/27 03:29:53;;;;;;;0.82;0.40;;;3.30;99.90;;;;;;5078082;28;20769;-55
2023/11/27 03:32:22;;;;;;;0.83;0.40;;;3.40;99.90;;;;;;5077511;28;20419;-54
2023/11/27 03:34:49;;;;;;;0.80;0.50;;;3.40;99.90;;;;;;5077058;28;20450;-54
2023/11/27 03:37:16;;;;;;;1.90;0.40;;;3.40;99.90;;;;;;5077521;28;20506;-54
2023/11/27 03:39:43;;;;;;;0.70;0.40;;;3.40;99.90;;;;;;5076776;28;20851;-53
2023/11/27 03:42:11;;;;;;;1.10;0.45;;;3.40;99.90;;;;;;5077365;28;20814;-52
2023/11/27 03:44:38;;;;;;;0.85;0.40;;;3.50;99.90;;;;;;5077327;28;20458;-52
2023/11/27 03:47:06;;;;;;;0.73;0.40;;;3.40;99.90;;;;;;5077278;28;20854;-54
2023/11/27 03:49:34;;;;;;;0.70;0.40;;;3.50;99.90;;;;;;5077762;28;20735;-53
2023/11/27 03:52:02;;;;;;;0.70;0.40;;;3.50;99.90;;;;;;5077653;28;20560;-53
2023/11/27 03:54:29;;;;;;;0.70;0.32;;;3.50;99.90;;;;;;5077880;28;20469;-55
2023/11/27 03:56:56;;;;;;;1.70;0.40;;;3.50;99.90;;;;;;5076895;28;20426;-55
2023/11/27 03:59:24;;;;;;;0.90;0.40;;;3.50;99.90;;;;;;5077264;28;20897;-55
2023/11/27 04:01:52;;;;;;;0.90;0.40;;;3.50;99.90;;;;;;5077755;28;20471;-55
2023/11/27 04:04:19;;;;;;;1.80;0.40;;;3.50;99.90;;;;;;5078313;28;20874;-54
2023/11/27 04:06:48;;;;;;;0.90;0.40;;;3.50;99.90;;;;;;5077051;28;20454;-55
2023/11/27 04:09:20;;;;;;;0.80;0.30;;;3.50;99.90;;;;;;5076774;28;20423;-52
2023/11/27 04:11:48;;;;;;;0.50;0.30;;;3.60;99.90;;;;;;5076585;28;20463;-56
2023/11/27 04:14:15;;;;;;;0.70;0.40;;;3.60;99.90;;;;;;5075013;28;20470;-56
2023/11/27 04:16:43;;;;;;;0.90;0.40;;;3.50;99.90;;;;;;5076487;28;20415;-58
2023/11/27 04:19:10;;;;;;;0.90;0.40;;;3.60;99.90;;;;;;5076073;28;20426;-56
2023/11/27 04:21:37;;;;;;;0.77;0.40;;;3.60;99.90;;;;;;5075517;28;20938;-57
2023/11/27 04:24:07;;;;;;;0.60;0.40;;;3.60;99.90;;;;;;5075976;28;20513;-56
2023/11/27 04:26:34;;;;;;;0.70;0.40;;;3.60;99.90;;;;;;5075764;28;20657;-55
2023/11/27 04:29:02;;;;;;;2.50;0.40;;;3.50;99.90;;;;;;5075168;28;20854;-55
2023/11/27 04:31:29;;;;;;;0.70;0.30;;;3.40;99.90;;;;;;5076587;28;20403;-56
2023/11/27 04:33:57;;;;;;;1.20;0.40;;;3.30;99.90;;;;;;5076024;28;20423;-53
2023/11/27 04:36:24;;;;;;;1.55;0.40;;;3.30;99.90;;;;;;5076004;28;20518;-56
2023/11/27 04:38:51;;;;;;;1.50;0.40;;;3.30;99.90;;;;;;5075648;28;20842;-55
2023/11/27 04:41:20;;;;;;;0.70;0.40;;;3.30;99.90;;;;;;5076040;28;20526;-56
2023/11/27 04:43:47;;;;;;;0.75;0.40;;;3.30;99.90;;;;;;5076099;28;20442;-56
2023/11/27 04:46:17;;;;;;;1.40;0.40;;;3.20;99.90;;;;;;5075174;28;20834;-57
2023/11/27 04:48:44;;;;;;;0.70;0.40;;;3.20;99.90;;;;;;5076648;28;20519;-56
2023/11/27 04:51:12;;;;;;;0.73;0.30;;;3.20;99.90;;;;;;5077229;28;20510;-56
2023/11/27 04:53:39;;;;;;;0.77;0.40;;;3.30;99.90;;;;;;5076888;28;20514;-55
2023/11/27 04:56:07;;;;;;;1.50;0.47;;;3.30;99.90;;;;;;5075924;28;20458;-55
2023/11/27 04:58:36;;;;;;;0.80;0.40;;;3.30;99.90;;;;;;5075599;28;20511;-56
2023/11/27 05:01:04;;;;;;;0.70;0.30;;;3.30;99.90;;;;;;5073040;28;20467;-57
2023/11/27 05:03:31;;;;;;;0.90;0.40;;;3.30;99.90;;;;;;5077182;28;20431;-55
2023/11/27 05:05:59;;;;;;;1.90;0.40;;;3.20;99.90;;;;;;5077087;28;20430;-56
2023/11/27 05:08:26;;;;;;;0.70;0.40;;;3.20;99.90;;;;;;5075953;28;20593;-55
2023/11/27 05:10:53;;;;;;;0.65;0.40;;;3.20;99.90;;;;;;5075704;28;20419;-50
2023/11/27 05:13:21;;;;;;;0.60;0.40;;;3.20;99.90;;;;;;5075694;28;20583;-55
2023/11/27 05:15:49;;;;;;;0.70;0.40;;;3.20;99.90;;;;;;5076194;28;20496;-51
2023/11/27 05:18:16;;;;;;;2.20;0.40;;;3.20;99.90;;;;;;5075612;28;20926;-56
2023/11/27 05:20:44;;;;;;;0.70;0.30;;;3.20;99.90;;;;;;5075417;28;20486;-53
2023/11/27 05:23:11;;;;;;;0.60;0.40;;;3.20;99.90;;;;;;5075563;28;20506;-54
2023/11/27 05:25:38;;;;;;;0.70;0.40;;;3.10;99.90;;;;;;5074986;28;20439;-51
2023/11/27 05:28:05;;;;;;;0.70;0.40;;;3.10;99.90;;;;;;5075487;28;20423;-55
2023/11/27 05:30:33;;;;;;;0.60;0.40;;;3.10;99.90;;;;;;5075449;28;20510;-56
2023/11/27 05:33:02;;;;;;;1.80;0.40;;;3.10;99.90;;;;;;5075259;28;20423;-56
2023/11/27 05:35:29;;;;;;;0.90;0.40;;;3.10;99.90;;;;;;5075657;28;20434;-57
2023/11/27 05:37:56;;;;;;;0.80;0.40;;;3.10;99.90;;;;;;5074983;28;20443;-57
2023/11/27 05:40:23;;;;;;;1.00;0.40;;;3.10;99.90;;;;;;5075702;28;20788;-57
2023/11/27 05:42:51;;;;;;;0.80;0.40;;;3.10;99.90;;;;;;5074702;28;20442;-57
2023/11/27 05:45:18;;;;;;;1.40;0.40;;;3.10;99.90;;;;;;5074489;28;20481;-57
2023/11/27 05:47:45;;;;;;;0.90;0.40;;;3.10;99.90;;;;;;5072637;28;20523;-57
2023/11/27 05:50:14;;;;;;;1.63;0.50;;;3.10;99.90;;;;;;5074585;28;20426;-54
2023/11/27 05:52:41;;;;;;;0.98;0.40;;;3.10;99.90;;;;;;5074089;28;20466;-56
2023/11/27 05:55:09;;;;;;;0.70;0.40;;;3.10;99.90;;;;;;5072845;28;20802;-57
2023/11/27 05:57:36;;;;;;;0.70;0.40;;;3.10;99.90;;;;;;5071514;28;20498;-55
2023/11/27 06:00:06;;;;;;;0.70;0.40;;;3.10;99.90;;;;;;5074753;28;20427;-56
2023/11/27 06:02:34;;;;;;;0.70;0.40;;;3.10;99.90;;;;;;5072959;28;20440;-56
2023/11/27 06:05:01;;;;;;;0.70;0.40;;;3.10;99.90;;;;;;5074338;28;20497;-55
2023/11/27 06:07:30;;;;;;;0.70;0.35;;;3.10;99.90;;;;;;5074589;28;20415;-53
2023/11/27 06:09:57;;;;;;;0.70;0.40;;;3.10;99.90;;;;;;5074436;28;20451;-57
2023/11/27 06:12:25;;;;;;;0.60;0.40;;;3.10;99.90;;;;;;5073010;28;20530;-55
2023/11/27 06:14:52;;;;;;;0.70;0.40;;;3.10;99.90;;;;;;5073260;28;20862;-56
2023/11/27 06:17:20;;;;;;;0.70;0.40;;;3.10;99.90;;;;;;5072630;28;20463;-56
2023/11/27 06:19:48;;;;;;;0.75;0.40;;;3.10;99.90;;;;;;5072979;28;20423;-54
2023/11/27 06:22:15;;;;;;;0.80;0.40;;;3.10;99.90;;;;;;5072480;28;20432;-56
2023/11/27 06:24:44;;;;;;;0.80;0.50;;;3.20;99.90;;;;;;5072614;28;20434;-55
2023/11/27 06:27:11;;;;;;;0.60;0.30;;;3.20;99.90;;;;;;5072131;28;20546;-55
2023/11/27 06:29:38;;;;;;;1.30;0.50;;;3.20;99.90;;;;;;5072499;28;21071;-54
2023/11/27 06:32:06;;;;;;;0.80;0.40;;;3.10;99.90;;;;;;5072083;28;20483;-55
2023/11/27 06:34:33;;;;;;;0.90;0.47;;;3.10;99.90;;;;;;5071618;28;20407;-56
2023/11/27 06:37:01;;;;;;;0.80;0.50;;;3.10;99.90;;;;;;5072129;28;20524;-55
2023/11/27 06:39:29;;;;;;;0.90;0.40;;;3.10;99.90;;;;;;5071892;28;20423;-57
2023/11/27 06:41:58;;;;;;;0.80;0.40;;;3.10;99.90;;;;;;5071696;28;20458;-54
2023/11/27 06:44:25;;;;;;;1.00;0.50;;;3.10;99.90;;;;;;5072995;28;20440;-57
2023/11/27 06:46:52;;;;;;;1.50;0.50;;;3.10;99.90;;;;;;5069742;28;20574;-55
2023/11/27 06:49:20;;;;;;;0.90;0.40;;;3.10;99.90;;;;;;5072478;28;20507;-57
2023/11/27 06:51:47;;;;;;;0.70;0.40;;;3.20;99.90;;;;;;5071812;28;20423;-55
2023/11/27 06:54:15;;;;;;;0.90;0.40;;;3.20;99.90;;;;;;5070868;28;20455;-56
2023/11/27 06:56:42;;;;;;;1.40;0.50;;;3.20;99.90;;;;;;5069400;28;20535;-55
2023/11/27 06:59:11;;;;;;;3.00;0.60;;;3.20;99.90;;;;;;5071814;28;20439;-57
2023/11/27 07:01:41;;;;;;;1.20;0.60;;;3.20;99.90;;;;;;5070360;28;20431;-55
2023/11/27 07:04:08;;;;;;;1.10;0.50;;;3.20;99.90;;;;;;5072952;28;20554;-56
2023/11/27 07:06:37;;;;;;;1.40;0.60;;;3.30;99.90;;;;;;5072275;28;20783;-55
2023/11/27 07:09:04;;;;;;;2.80;0.50;;;3.30;99.90;;;;;;5070731;28;20507;-57
2023/11/27 07:11:32;;;;;;;1.20;0.50;;;3.40;99.90;;;;;;5070469;28;20738;-54
2023/11/27 07:14:00;;;;;;;1.00;0.50;;;3.40;99.90;;;;;;5071219;28;20419;-55
2023/11/27 07:16:29;;;;;;;1.88;0.50;;;3.30;99.90;;;;;;5071969;28;20826;-50
2023/11/27 07:18:57;;;;;;;2.00;0.50;;;3.30;99.90;;;;;;5068124;28;20485;-50
2023/11/27 07:21:25;;;;;;;0.70;0.40;;;3.30;99.90;;;;;;5064840;28;21032;-54
2023/11/27 07:23:53;;;;;;;1.10;0.60;;;3.30;99.90;;;;;;5064366;28;20439;-51
2023/11/27 07:26:21;;;;;;;1.40;0.60;;;3.30;99.90;;;;;;5061291;28;20435;-51
2023/11/27 07:28:48;;;;;;;1.10;0.60;;;3.30;99.90;;;;;;5066880;28;20431;-49
2023/11/27 07:31:16;;;;;;;1.00;0.57;;;3.40;99.90;;;;;;5071598;28;20524;-51
2023/11/27 07:33:45;;;;;;;1.67;0.60;;;3.40;99.90;;;;;;5069485;28;20428;-50
2023/11/27 07:36:13;;;;;;;1.00;0.50;;;3.40;99.90;;;;;;5054953;28;20434;-49
2023/11/27 07:38:41;;;;;;;2.30;0.70;;;3.50;99.90;;;;;;5066940;28;20446;-51
2023/11/27 07:41:08;;;;;;;1.00;0.60;;;3.50;99.90;;;;;;5065709;28;20485;-50
2023/11/27 07:43:36;;;;;;;1.40;0.70;;;3.50;99.90;;;;;;5064062;28;20427;-48
2023/11/27 07:46:06;;;;;;;1.30;0.60;;;3.60;99.90;;;;;;5079477;28;20487;-49
2023/11/27 07:48:34;;;;;;;0.80;0.50;;;3.70;99.90;;;;;;5070094;28;20450;-49
2023/11/27 07:51:05;;;;;;;1.23;0.60;;;3.70;99.90;;;;;;5068268;28;20493;-47
2023/11/27 07:53:32;;;;;;;1.50;0.50;;;3.70;99.90;;;;;;5067068;28;20885;-49
2023/11/27 07:55:59;;;;;;;2.03;0.70;;;3.80;99.90;;;;;;5069381;28;20522;-46
2023/11/27 07:58:26;;;;;;;1.20;0.60;;;3.80;99.90;;;;;;5067405;28;20771;-50
2023/11/27 08:00:54;;;;;;;1.80;0.60;;;3.90;99.90;;;;;;5075008;28;20974;-53
2023/11/27 08:03:21;;;;;;;1.40;0.50;;;3.90;99.90;;;;;;5067943;28;20442;-51
2023/11/27 08:05:49;;;;;;;1.50;0.50;;;3.90;99.90;;;;;;5070722;28;20721;-52
2023/11/27 08:08:18;;;;;;;1.10;0.60;;;3.90;99.90;;;;;;5069898;28;20522;-49
2023/11/27 08:10:46;;;;;;;0.90;0.52;;;3.90;99.90;;;;;;5074585;28;20570;-51
2023/11/27 08:13:13;;;;;;;2.30;0.70;;;3.80;99.90;;;;;;5076523;28;20527;-51
2023/11/27 08:15:42;;;;;;;1.50;0.60;;;3.80;99.90;;;;;;5075251;28;20510;-50
2023/11/27 08:18:11;;;;;;;2.28;0.70;;;3.90;99.90;;;;;;5075612;28;20431;-53
2023/11/27 08:20:38;;;;;;;2.10;0.60;;;4.00;99.90;;;;;;5074955;28;20727;-47
2023/11/27 08:23:06;;;;;;;1.90;0.60;;;4.10;99.90;;;;;;5060397;28;20433;-49
2023/11/27 08:25:34;;;;;;;1.17;0.60;;;4.20;99.90;;;;;;5071396;28;20743;-49
2023/11/27 08:28:03;;;;;;;1.17;0.60;;;4.20;99.90;;;;;;5073166;28;20435;-49
2023/11/27 08:30:32;;;;;;;1.50;0.60;;;4.20;99.90;;;;;;5073857;28;20416;-47
2023/11/27 08:33:00;;;;;;;1.45;0.70;;;4.10;99.90;;;;;;5074028;28;20430;-48
2023/11/27 08:35:33;;;;;;;1.67;0.60;;;4.10;99.90;;;;;;5073502;28;20492;-46
2023/11/27 08:38:01;;;;;;;1.50;0.60;;;4.10;99.90;;;;;;5072441;28;20419;-48
2023/11/27 08:40:28;;;;;;;2.30;0.60;;;4.20;99.90;;;;;;5069059;28;20461;-52
2023/11/27 08:42:56;;;;;;;1.75;0.50;;;4.20;99.90;;;;;;5074932;28;20526;-52
2023/11/27 08:45:25;;;;;;;2.17;0.65;;;4.20;99.90;;;;;;5074193;28;20504;-53
2023/11/27 08:47:52;;;;;;;2.13;0.90;;;4.20;99.90;;;;;;5075003;28;20449;-55
2023/11/27 08:50:21;;;;;;;2.55;0.70;;;4.20;99.90;;;;;;5072039;28;20482;-54
2023/11/27 08:52:48;;;;;;;1.43;0.50;;;4.30;99.90;;;;;;5071409;28;20522;-52
2023/11/27 08:55:18;;;;;;;0.90;0.60;;;4.20;99.90;;;;;;5073960;28;20526;-51
2023/11/27 08:57:46;;;;;;;2.90;0.70;;;4.30;99.90;;;;;;5082206;28;20857;-52
2023/11/27 09:00:18;;;;;;;1.45;0.70;;;4.30;99.90;;;;;;5069895;28;20530;-54
2023/11/27 09:02:46;;;;;;;2.30;0.60;;;4.40;99.90;;;;;;5074438;28;20734;-51
2023/11/27 09:05:13;;;;;;;2.13;0.60;;;4.40;99.90;;;;;;5071922;28;20455;-53
2023/11/27 09:07:41;;;;;;;1.70;0.70;;;4.40;99.90;;;;;;5073729;28;20477;-48
2023/11/27 09:10:09;;;;;;;1.88;0.70;;;4.40;99.90;;;;;;5071488;28;20501;-51
2023/11/27 09:12:37;;;;;;;0.98;0.50;;;4.50;99.90;;;;;;5071099;28;20461;-51
2023/11/27 09:15:06;;;;;;;1.00;0.60;;;4.50;99.90;;;;;;5068922;28;20808;-49
2023/11/27 09:17:37;;;;;;;2.00;0.60;;;4.50;99.90;;;;;;5071523;28;20462;-53
2023/11/27 09:20:06;;;;;;;1.60;0.57;;;4.60;99.90;;;;;;5072369;28;20483;-49
2023/11/27 09:22:33;;;;;;;1.40;0.60;;;4.70;99.90;;;;;;5070661;28;20474;-51
2023/11/27 09:25:01;;;;;;;1.20;0.50;;;4.80;99.90;;;;;;5062419;28;20510;-54
2023/11/27 09:27:28;;;;;;;1.23;0.50;;;4.90;99.90;;;;;;5072952;28;20465;-53
2023/11/27 09:29:56;;;;;;;1.50;0.50;;;5.00;99.90;;;;;;5074496;28;20439;-52
2023/11/27 09:32:23;;;;;;;1.00;0.60;;;5.10;99.90;;;;;;5073475;28;20514;-52
2023/11/27 09:34:51;;;;;;;1.13;0.50;;;5.20;99.90;;;;;;5063157;28;20439;-48
2023/11/27 09:37:18;;;;;;;0.80;0.50;;;5.20;99.90;;;;;;5072205;28;20438;-48
2023/11/27 09:39:46;;;;;;;0.90;0.50;;;5.20;99.90;;;;;;5078905;28;20530;-53
2023/11/27 09:42:14;;;;;;;1.02;0.50;;;5.20;99.90;;;;;;5055922;28;20727;-51
2023/11/27 09:44:41;;;;;;;0.75;0.50;;;5.20;99.90;;;;;;5069570;28;20450;-49
2023/11/27 09:47:12;;;;;;;0.80;0.50;;;5.30;99.90;;;;;;5067543;28;20500;-52
2023/11/27 09:49:47;;;;;;;1.40;0.50;;;5.40;99.90;;;;;;5070660;28;20808;-54
2023/11/27 09:52:21;;;;;;;1.00;0.50;;;5.50;99.90;;;;;;5055195;28;20451;-51
2023/11/27 09:54:56;;;;;;;1.15;0.50;;;5.50;99.90;;;;;;5073041;28;20850;-48
2023/11/27 09:57:23;;;;;;;1.60;0.50;;;5.60;99.90;;;;;;5061082;28;20436;-48
2023/11/27 09:59:50;;;;;;;0.88;0.40;;;5.60;99.90;;;;;;5066208;28;20475;-50
2023/11/27 10:02:18;;;;;;;1.35;0.50;;;5.60;99.90;;;;;;5076452;28;20456;-48
2023/11/27 10:04:46;;;;;;;1.30;0.50;;;5.60;99.90;;;;;;5068491;28;20422;-49
2023/11/27 10:07:14;;;;;;;2.30;1.30;;;5.60;99.90;;;;;;5077931;28;20443;-52
2023/11/27 10:09:44;;;;;;;0.90;0.47;;;5.60;99.90;;;;;;5068441;28;20443;-55
2023/11/27 10:12:12;;;;;;;1.90;0.50;;;5.70;99.90;;;;;;5052583;28;20730;-55
2023/11/27 10:14:42;;;;;;;0.80;0.47;;;5.70;99.90;;;;;;5070226;28;20894;-50
2023/11/27 10:17:12;;;;;;;1.17;0.50;;;5.70;99.90;;;;;;5068056;28;20918;-54
2023/11/27 10:19:41;;;;;;;1.20;0.50;;;5.80;99.90;;;;;;5070643;28;20510;-53
2023/11/27 10:22:11;;;;;;;1.10;0.40;;;5.80;99.90;;;;;;5070479;28;20436;-52
2023/11/27 10:24:38;;;;;;;0.90;0.40;;;5.70;99.90;;;;;;5071318;28;20458;-51
2023/11/27 10:27:10;;;;;;;0.80;0.40;;;5.70;99.90;;;;;;5071727;28;20869;-52
2023/11/27 10:29:38;;;;;;;0.82;0.40;;;5.70;99.90;;;;;;5072136;28;20735;-55
2023/11/27 10:32:05;;;;;;;1.20;0.60;;;5.70;99.90;;;;;;5073095;28;20424;-54
2023/11/27 10:34:33;;;;;;;1.27;0.50;;;5.80;99.90;;;;;;5068753;28;20743;-53
2023/11/27 10:37:02;;;;;;;0.75;0.40;;;5.80;99.90;;;;;;5070023;28;20530;-55
2023/11/27 10:39:32;;;;;;;1.00;0.30;;;5.90;99.90;;;;;;5062348;28;20745;-50
2023/11/27 10:42:02;;;;;;;2.20;0.30;;;5.90;99.90;;;;;;5068154;28;20796;-52
2023/11/27 10:44:36;;;;;;;0.80;0.40;;;5.90;99.90;;;;;;5070539;28;20522;-53
2023/11/27 10:47:07;;;;;;;0.80;0.40;;;5.90;99.90;;;;;;5053415;28;20421;-55
2023/11/27 10:49:38;;;;;;;0.70;0.40;;;5.80;99.90;;;;;;5068653;28;20485;-56
2023/11/27 10:52:11;;;;;;;0.60;0.40;;;5.70;99.90;;;;;;5071990;28;20462;-56
2023/11/27 10:54:41;;;;;;;0.70;0.40;;;5.70;99.90;;;;;;5069954;28;20538;-54
2023/11/27 10:57:10;;;;;;;0.90;0.40;;;5.80;99.90;;;;;;5071777;28;20799;-54
2023/11/27 10:59:42;;;;;;;0.80;0.50;;;5.90;99.90;;;;;;5068530;28;20442;-53
2023/11/27 11:02:12;;;;;;;0.70;0.40;;;5.80;99.90;;;;;;5072772;28;20432;-53
2023/11/27 11:04:50;;;;;;;0.85;0.43;;;5.90;99.90;;;;;;5069166;28;20435;-50
2023/11/27 11:07:27;;;;;;;0.70;0.50;;;6.00;99.90;;;;;;5071644;28;20438;-53
2023/11/27 11:09:56;;;;;;;0.95;0.50;;;6.00;99.90;;;;;;5072878;28;20779;-53
2023/11/27 11:12:24;;;;;;;0.80;0.50;;;6.20;99.90;;;;;;5070054;28;20850;-54
2023/11/27 11:14:55;;;;;;;0.90;0.50;;;6.20;99.90;;;;;;5067509;28;21088;-52
2023/11/27 11:17:37;;;;;;;1.85;0.60;;;6.30;99.90;;;;;;5066824;28;20440;-52
2023/11/27 11:20:15;;;;;;;1.00;0.40;;;6.40;99.90;;;;;;5070577;28;20467;-51
2023/11/27 11:22:55;;;;;;;1.00;0.40;;;6.50;99.90;;;;;;5070187;28;21077;-51
2023/11/27 11:25:29;;;;;;;1.20;0.50;;;6.50;99.90;;;;;;5066993;28;20427;-52
2023/11/27 11:28:05;;;;;;;0.90;0.50;;;6.60;99.90;;;;;;5075934;28;20742;-53
2023/11/27 11:30:36;;;;;;;0.80;0.40;;;6.60;99.90;;;;;;5075065;28;20462;-48
2023/11/27 11:33:06;;;;;;;0.90;0.50;;;6.50;99.90;;;;;;5071732;28;20855;-51
2023/11/27 11:35:36;;;;;;;1.40;0.50;;;6.30;99.90;;;;;;5070941;28;20739;-54
2023/11/27 11:38:15;;;;;;;0.90;0.50;;;6.20;99.90;;;;;;5071741;28;20427;-52
2023/11/27 11:40:48;;;;;;;1.15;0.50;;;6.20;99.90;;;;;;5069575;28;20427;-51
2023/11/27 11:43:15;;;;;;;0.90;0.45;;;6.10;99.90;;;;;;5071432;28;20442;-51
2023/11/27 11:45:45;;;;;;;0.70;0.40;;;6.00;99.90;;;;;;5072764;28;20431;-53
2023/11/27 11:48:15;;;;;;;1.00;0.40;;;6.00;99.90;;;;;;5075353;28;20435;-52
2023/11/27 11:50:42;;;;;;;0.70;0.40;;;6.10;99.90;;;;;;5075666;28;20431;-55
2023/11/27 11:53:39;;;;;;;0.80;0.40;;;6.00;99.90;;;;;;5074917;28;20481;-56
2023/11/27 11:56:19;;;;;;;0.95;0.40;;;6.10;99.90;;;;;;5074539;28;20411;-51
2023/11/27 11:58:47;;;;;;;0.70;0.33;;;6.10;99.90;;;;;;5076715;28;21009;-53
2023/11/27 12:01:18;;;;;;;0.80;0.40;;;6.30;99.90;;;;;;5076057;28;20880;-51
2023/11/27 12:03:46;;;;;;;0.60;0.30;;;6.30;99.90;;;;;;5074313;28;20496;-53
2023/11/27 12:06:17;;;;;;;0.70;0.35;;;6.30;99.90;;;;;;5075307;28;20505;-53
2023/11/27 12:08:46;;;;;;;0.77;0.40;;;6.30;99.90;;;;;;5074919;28;20517;-53
2023/11/27 12:11:15;;;;;;;1.00;0.40;;;6.30;99.90;;;;;;5073670;28;20467;-55
2023/11/27 12:13:44;;;;;;;1.45;0.30;;;6.40;99.90;;;;;;5073569;28;20843;-56
2023/11/27 12:16:12;;;;;;;0.50;0.30;;;6.30;99.90;;;;;;5073485;28;20423;-55
2023/11/27 12:18:43;;;;;;;0.90;0.30;;;6.20;99.90;;;;;;5073636;28;20433;-53
2023/11/27 12:21:11;;;;;;;0.70;0.30;;;6.20;99.90;;;;;;5075138;28;20422;-54
2023/11/27 12:23:43;;;;;;;0.55;0.30;;;6.20;99.90;;;;;;5070347;28;20522;-54
2023/11/27 12:26:16;;;;;;;0.50;0.30;;;6.20;99.90;;;;;;5071086;28;20510;-51
2023/11/27 12:28:46;;;;;;;0.95;0.30;;;6.20;99.90;;;;;;5074478;28;20427;-50
2023/11/27 12:31:16;;;;;;;0.50;0.20;;;6.20;99.90;;;;;;5059378;28;20522;-48
2023/11/27 12:33:47;;;;;;;0.80;0.50;;;6.10;99.90;;;;;;5069462;28;20450;-50
2023/11/27 12:36:20;;;;;;;0.90;0.30;;;6.10;99.90;;;;;;5072803;28;21779;-54
2023/11/27 12:38:52;;;;;;;0.80;0.30;;;6.10;99.90;;;;;;5069090;28;20511;-51
2023/11/27 12:41:29;;;;;;;0.50;0.30;;;6.10;99.90;;;;;;5075562;28;20439;-50
2023/11/27 12:44:08;;;;;;;0.40;0.20;;;6.20;99.90;;;;;;5066976;28;20510;-49
2023/11/27 12:46:36;;;;;;;0.50;0.20;;;6.10;99.90;;;;;;5077345;28;20440;-51
2023/11/27 12:49:06;;;;;;;0.40;0.20;;;6.10;99.90;;;;;;5076686;28;20427;-49
2023/11/27 12:51:37;;;;;;;0.60;0.20;;;6.00;99.90;;;;;;5071404;28;20442;-53
2023/11/27 12:54:18;;;;;;;0.60;0.20;;;5.80;99.90;;;;;;5069719;28;20536;-53
2023/11/27 12:56:49;;;;;;;0.40;0.20;;;5.80;99.90;;;;;;5072246;28;20720;-50
2023/11/27 12:59:16;;;;;;;0.43;0.20;;;5.70;99.90;;;;;;5072759;28;20438;-51
2023/11/27 13:01:53;;;;;;;0.30;0.10;;;5.70;99.90;;;;;;5074244;28;20416;-52
2023/11/27 13:04:29;;;;;;;0.40;0.20;;;5.60;99.90;;;;;;5069675;28;20528;-53